Time;durP1;ratioP1;P1;durP2;ratioP2;P2;SDS_P1;SDS_P2;PMS_P1;PMS_P2;Temp;Humidity;BMP_temperature;BMP_pressure;BME280_temperature;BME280_humidity;BME280_pressure;Samples;Min_cycle;Max_cycle;Signal;HPM_P1;HPM_P2
2023/07/04 00:13:50;;;;;;;14.63;9.85;;;;;;;26.90;100.00;99880.75;31632372;28;20048;-77
2023/07/04 00:28:53;;;;;;;13.97;9.47;;;;;;;26.70;100.00;99882.88;31620625;28;20487;-79
2023/07/04 00:44:00;;;;;;;16.90;10.20;;;;;;;26.53;100.00;99868.53;31606303;28;20355;-76
2023/07/04 00:59:02;;;;;;;15.05;9.57;;;;;;;26.53;100.00;99885.22;31623388;28;20518;-76
2023/07/04 01:14:17;;;;;;;12.27;9.05;;;;;;;26.73;100.00;99898.50;31637216;28;20481;-78
2023/07/04 01:29:21;;;;;;;15.82;10.20;;;;;;;26.79;100.00;99909.53;31605312;28;20079;-75
2023/07/04 01:44:26;;;;;;;17.80;10.48;;;;;;;26.93;100.00;99915.88;31578810;28;20050;-77
2023/07/04 01:59:28;;;;;;;12.77;9.05;;;;;;;27.25;100.00;99924.84;31615060;28;20507;-76
2023/07/04 02:14:30;;;;;;;15.33;10.00;;;;;;;27.18;100.00;99914.34;31625904;28;20079;-78
2023/07/04 02:29:32;;;;;;;15.67;10.33;;;;;;;27.87;100.00;99949.38;31650806;28;20648;-75
2023/07/04 02:44:34;;;;;;;16.70;10.10;;;;;;;27.75;100.00;99962.06;31623294;28;20748;-76
2023/07/04 02:59:36;;;;;;;19.10;10.47;;;;;;;27.43;100.00;99951.81;31604905;28;20056;-75
2023/07/04 03:14:38;;;;;;;11.57;8.13;;;;;;;28.04;100.00;100002.75;31636285;28;20415;-76
2023/07/04 03:29:41;;;;;;;11.53;7.00;;;;;;;27.97;100.00;99992.25;31638208;28;20063;-75
2023/07/04 03:44:43;;;;;;;10.30;8.17;;;;;;;28.84;100.00;100019.88;31629939;28;20060;-77
2023/07/04 03:59:45;;;;;;;19.00;9.90;;;;;;;28.59;100.00;100015.94;31628625;28;20043;-76
2023/07/04 04:14:47;;;;;;;15.37;10.50;;;;;;;29.07;100.00;100037.56;31575538;28;20698;-78
2023/07/04 04:29:49;;;;;;;18.23;12.23;;;;;;;29.56;100.00;100049.97;31592957;28;20056;-79
2023/07/04 04:44:53;;;;;;;24.07;10.93;;;;;;;30.31;100.00;100049.50;31597969;28;20076;-78
2023/07/04 04:59:59;;;;;;;22.90;13.27;;;;;;;30.93;100.00;100069.94;31630607;28;20376;-77
2023/07/04 05:15:03;;;;;;;21.27;11.10;;;;;;;31.45;100.00;100083.16;31601646;28;20060;-78
2023/07/04 05:30:08;;;;;;;21.60;12.13;;;;;;;32.20;100.00;100101.06;31490564;28;20090;-79
2023/07/04 05:45:10;;;;;;;24.73;12.52;;;;;;;32.84;99.71;100122.00;31489296;28;20227;-79
2023/07/04 06:00:13;;;;;;;18.35;11.85;;;;;;;33.64;92.96;100131.44;31450101;28;20142;-78
2023/07/04 06:15:15;;;;;;;17.90;13.10;;;;;;;34.08;88.08;100149.16;31504597;28;20082;-79
2023/07/04 06:30:17;;;;;;;27.35;13.90;;;;;;;33.85;85.92;100149.41;31643468;28;20043;-78
2023/07/04 06:45:19;;;;;;;39.33;25.15;;;;;;;34.14;81.87;100158.09;31602052;28;20052;-84
2023/07/04 07:00:23;;;;;;;23.80;14.43;;;;;;;34.76;71.91;100167.19;31687152;28;20048;-84
2023/07/04 07:15:25;;;;;;;32.95;19.02;;;;;;;35.68;65.14;100166.44;31661864;28;20085;-83
2023/07/04 07:30:27;;;;;;;33.67;17.08;;;;;;;36.06;63.39;100162.91;31704654;28;20094;-84
2023/07/04 07:45:29;;;;;;;25.08;12.13;;;;;;;35.94;63.72;100156.34;31640599;28;20126;-83
2023/07/04 08:00:31;;;;;;;25.98;10.57;;;;;;;36.46;60.10;100155.84;31624610;28;20047;-88
2023/07/04 08:15:33;;;;;;;19.95;9.00;;;;;;;36.73;56.07;100149.97;31550109;28;20094;-86
2023/07/04 08:30:36;;;;;;;16.17;8.10;;;;;;;37.43;52.71;100148.41;31475970;28;20048;-86
2023/07/04 08:45:40;;;;;;;18.52;10.70;;;;;;;38.24;52.04;100155.09;31452583;28;20116;-88
2023/07/04 09:00:44;;;;;;;8.90;5.65;;;;;;;38.82;45.31;100161.56;31483817;28;20044;-86
2023/07/04 09:15:47;;;;;;;9.88;6.63;;;;;;;39.39;42.18;100147.97;31537098;28;20052;-83
2023/07/04 09:30:52;;;;;;;18.30;7.15;;;;;;;39.72;39.05;100144.91;31608790;28;20044;-83
2023/07/04 09:46:29;;;;;;;9.73;4.50;;;;;;;40.08;39.06;100151.94;31586747;28;20055;-82
2023/07/04 10:01:31;;;;;;;8.25;4.20;;;;;;;41.00;35.91;100145.47;31607942;28;20139;-84
2023/07/04 10:16:34;;;;;;;4.88;3.17;;;;;;;41.42;32.08;100156.22;31585619;28;20552;-88
2023/07/04 10:31:40;;;;;;;5.00;2.67;;;;;;;42.18;30.74;100140.66;31639901;28;20441;-84
2023/07/04 10:46:52;;;;;;;4.83;3.50;;;;;;;40.88;30.97;100137.03;31648341;28;20403;-83
2023/07/04 11:02:12;;;;;;;10.30;4.97;;;;;;;40.49;33.36;100137.09;31628690;28;20487;-90
2023/07/04 11:17:20;;;;;;;5.65;4.20;;;;;;;41.33;32.74;100116.59;31642952;28;20051;-86
2023/07/04 11:32:33;;;;;;;9.73;4.22;;;;;;;40.11;35.12;100110.88;31655200;28;20048;-85
2023/07/04 11:47:47;;;;;;;10.70;4.85;;;;;;;39.79;35.55;100103.38;31606008;28;21827;-89
2023/07/04 12:02:50;;;;;;;8.23;4.20;;;;;;;39.16;35.22;100103.34;31604712;28;20062;-87
2023/07/04 12:17:54;;;;;;;7.47;5.13;;;;;;;38.20;34.58;100093.94;31599319;28;20061;-80
2023/07/04 12:32:57;;;;;;;11.63;4.50;;;;;;;37.78;36.28;100089.16;31650979;28;20044;-83
2023/07/04 12:48:05;;;;;;;8.93;5.53;;;;;;;37.60;37.76;100095.69;31608775;28;20051;-75
2023/07/04 13:03:17;;;;;;;7.00;4.65;;;;;;;37.74;37.01;100090.97;31604227;28;20058;-77
2023/07/04 13:18:31;;;;;;;9.35;6.22;;;;;;;36.91;40.30;100088.25;31549987;28;20053;-77
2023/07/04 13:33:34;;;;;;;7.13;4.55;;;;;;;36.45;40.09;100083.69;31500391;28;20068;-82
2023/07/04 13:48:38;;;;;;;7.70;4.50;;;;;;;36.64;39.90;100063.81;31520486;28;20044;-82
2023/07/04 14:03:40;;;;;;;12.88;5.38;;;;;;;36.75;39.91;100063.22;31495107;28;20080;-82
2023/07/04 14:18:46;;;;;;;6.53;4.75;;;;;;;36.30;41.91;100059.38;31551997;28;20143;-87
2023/07/04 14:33:51;;;;;;;5.75;4.10;;;;;;;36.83;40.16;100060.94;31629272;28;20072;-86
2023/07/04 14:48:53;;;;;;;21.50;12.57;;;;;;;36.66;39.46;100044.16;31663969;28;20052;-86
2023/07/04 15:03:57;;;;;;;5.13;3.60;;;;;;;36.67;38.97;100045.66;31683487;28;20124;-84
2023/07/04 15:19:03;;;;;;;10.20;6.25;;;;;;;36.64;39.05;100044.03;31607433;28;20115;-86
2023/07/04 15:34:10;;;;;;;5.47;3.20;;;;;;;36.13;38.90;100051.81;31541203;28;20055;-84
2023/07/04 15:49:13;;;;;;;4.75;4.00;;;;;;;36.21;39.28;100060.84;31520033;28;20491;-87
2023/07/04 16:04:15;;;;;;;3.85;3.22;;;;;;;36.22;39.09;100059.50;31477557;28;20412;-86
2023/07/04 16:19:17;;;;;;;38.13;27.23;;;;;;;36.00;40.38;100074.91;31586536;28;20059;-87
2023/07/04 16:34:20;;;;;;;8.70;4.82;;;;;;;35.78;41.50;100067.66;31620363;28;20051;-85
2023/07/04 16:49:37;;;;;;;12.18;6.25;;;;;;;35.72;43.16;100070.00;31635226;28;20088;-87
2023/07/04 17:04:40;;;;;;;6.45;4.30;;;;;;;35.29;43.00;100081.00;31710533;28;20060;-86
2023/07/04 17:19:42;;;;;;;14.50;4.72;;;;;;;34.89;43.74;100078.69;31572623;28;20460;-87
2023/07/04 17:34:45;;;;;;;6.97;4.80;;;;;;;34.85;44.13;100093.22;31478074;28;20140;-80
2023/07/04 17:49:47;;;;;;;42.13;16.00;;;;;;;34.46;44.77;100108.47;31486264;28;20052;-82
2023/07/04 18:04:53;;;;;;;12.45;5.78;;;;;;;34.35;46.01;100117.47;31457621;28;20477;-85
2023/07/04 18:19:58;;;;;;;9.50;5.53;;;;;;;34.04;46.59;100117.84;31555062;28;20105;-81
2023/07/04 18:35:00;;;;;;;12.93;6.22;;;;;;;33.80;48.40;100132.78;31595486;28;20052;-81
2023/07/04 18:50:02;;;;;;;14.65;5.15;;;;;;;33.51;49.64;100136.09;31651642;28;20399;-85
2023/07/04 19:05:05;;;;;;;6.70;4.40;;;;;;;33.16;51.47;100142.94;31633928;28;20115;-81
2023/07/04 19:20:07;;;;;;;10.63;6.20;;;;;;;33.02;53.02;100148.13;31603950;28;20052;-79
2023/07/04 19:35:10;;;;;;;10.77;5.60;;;;;;;32.93;54.40;100159.25;31607707;28;20546;-78
2023/07/04 19:50:13;;;;;;;9.35;5.18;;;;;;;32.70;55.99;100162.94;31590702;28;20101;-80
2023/07/04 20:05:16;;;;;;;7.95;6.00;;;;;;;32.60;57.42;100159.25;31595548;28;20079;-82
2023/07/04 20:20:18;;;;;;;16.63;10.20;;;;;;;32.50;58.51;100161.19;31578493;28;20087;-82
2023/07/04 20:35:20;;;;;;;15.18;6.47;;;;;;;32.26;60.23;100164.69;31499349;28;20510;-81
2023/07/04 20:50:26;;;;;;;11.75;6.90;;;;;;;32.05;61.97;100165.69;31503474;28;20094;-79
2023/07/04 21:05:28;;;;;;;9.07;7.25;;;;;;;32.11;63.07;100160.63;31487115;28;20488;-78
2023/07/04 21:20:30;;;;;;;14.75;11.48;;;;;;;32.18;63.88;100182.28;31470530;28;20056;-80
2023/07/04 21:35:36;;;;;;;8.98;6.85;;;;;;;31.84;66.90;100177.19;31453256;28;20052;-77
2023/07/04 21:50:41;;;;;;;11.23;7.10;;;;;;;31.54;69.28;100194.78;31414315;28;20052;-80
2023/07/04 22:05:44;;;;;;;15.88;11.55;;;;;;;31.25;70.79;100201.91;31447706;28;20059;-77
2023/07/04 22:20:46;;;;;;;12.30;7.00;;;;;;;31.10;72.98;100196.25;31583187;28;20056;-80
2023/07/04 22:35:49;;;;;;;23.15;15.35;;;;;;;30.92;74.63;100197.38;31648854;28;20060;-77
2023/07/04 22:51:02;;;;;;;11.35;7.53;;;;;;;31.01;77.33;100191.94;31618900;28;20048;-80
2023/07/04 23:06:07;;;;;;;9.77;7.93;;;;;;;30.88;77.75;100188.56;31631453;28;20169;-76
2023/07/04 23:21:10;;;;;;;11.77;8.45;;;;;;;30.81;78.51;100193.59;31636998;28;20553;-79
2023/07/04 23:36:15;;;;;;;9.50;7.43;;;;;;;30.60;81.75;100195.06;31616252;28;20052;-82
2023/07/04 23:51:17;;;;;;;11.95;7.07;;;;;;;30.58;82.22;100180.84;31617300;28;20051;-77
